createdAt,value
2022-11-16T00:00:01.488Z,13.07
2022-11-16T00:03:07.880Z,12.63
2022-11-16T00:06:12.302Z,14.70
2022-11-16T00:09:24.083Z,14.23
2022-11-16T00:12:28.440Z,13.00
2022-11-16T00:15:31.236Z,14.20
2022-11-16T00:18:34.908Z,13.50
2022-11-16T00:21:38.056Z,11.07
2022-11-16T00:24:40.936Z,11.32
2022-11-16T00:27:45.117Z,11.57
2022-11-16T00:30:48.098Z,13.20
2022-11-16T00:33:51.860Z,12.13
2022-11-16T00:36:54.684Z,11.10
2022-11-16T00:39:57.559Z,11.15
2022-11-16T00:43:01.709Z,12.20
2022-11-16T00:46:05.214Z,9.52
2022-11-16T00:49:08.278Z,11.98
2022-11-16T00:52:11.133Z,11.63
2022-11-16T00:55:14.023Z,10.40
2022-11-16T00:58:20.997Z,12.15
2022-11-16T01:01:30.816Z,12.57
2022-11-16T01:04:33.746Z,12.20
2022-11-16T01:07:37.014Z,10.57
2022-11-16T01:10:41.750Z,11.55
2022-11-16T01:13:47.290Z,11.27
2022-11-16T01:16:50.925Z,11.57
2022-11-16T01:19:54.190Z,11.60
2022-11-16T01:22:57.191Z,11.90
2022-11-16T01:26:01.745Z,11.43
2022-11-16T01:29:07.511Z,11.40
2022-11-16T01:32:15.832Z,11.65
2022-11-16T01:35:20.143Z,11.27
2022-11-16T01:38:28.436Z,10.85
2022-11-16T01:41:33.039Z,11.68
2022-11-16T01:45:02.475Z,12.30
2022-11-16T01:48:06.587Z,10.23
2022-11-16T01:51:10.759Z,10.32
2022-11-16T01:54:15.023Z,11.32
2022-11-16T01:57:32.888Z,12.55
2022-11-16T02:00:43.166Z,10.57
2022-11-16T02:04:11.354Z,8.93
2022-11-16T02:07:24.522Z,10.32
2022-11-16T02:10:42.985Z,12.30
2022-11-16T02:13:58.825Z,10.63
2022-11-16T02:17:12.003Z,12.20
2022-11-16T02:20:42.120Z,10.60
2022-11-16T02:24:10.270Z,11.82
2022-11-16T02:27:45.790Z,10.27
2022-11-16T02:30:53.792Z,10.10
2022-11-16T02:33:58.055Z,10.57
2022-11-16T02:37:06.228Z,11.07
2022-11-16T02:40:12.695Z,9.07
2022-11-16T02:43:21.551Z,10.38
2022-11-16T02:46:31.065Z,11.07
2022-11-16T02:49:37.622Z,10.32
2022-11-16T02:52:40.513Z,9.50
2022-11-16T02:55:45.676Z,12.75
2022-11-16T02:58:49.055Z,10.45
2022-11-16T03:02:03.617Z,10.25
2022-11-16T03:05:11.122Z,9.77
2022-11-16T03:08:26.435Z,10.50
2022-11-16T03:11:48.371Z,11.20
2022-11-16T03:14:56.015Z,10.98
2022-11-16T03:18:02.902Z,10.43
2022-11-16T03:21:12.288Z,12.25
2022-11-16T03:24:16.029Z,10.95
2022-11-16T03:27:30.152Z,12.18
2022-11-16T03:30:37.958Z,12.57
2022-11-16T03:33:47.062Z,13.65
2022-11-16T03:36:53.356Z,12.60
2022-11-16T03:39:58.766Z,11.48
2022-11-16T03:43:03.937Z,12.55
2022-11-16T03:46:07.199Z,10.23
2022-11-16T03:49:11.437Z,10.45
2022-11-16T03:52:15.468Z,11.57
2022-11-16T03:55:18.758Z,11.38
2022-11-16T03:58:21.984Z,11.93
2022-11-16T04:01:24.889Z,10.10
2022-11-16T04:04:47.925Z,10.10
2022-11-16T04:08:08.132Z,11.05
2022-11-16T04:11:30.442Z,11.10
2022-11-16T04:14:51.160Z,9.85
2022-11-16T04:18:12.785Z,11.18
2022-11-16T04:21:40.858Z,11.18
2022-11-16T04:24:47.968Z,11.00
2022-11-16T04:28:08.665Z,8.45
2022-11-16T04:31:29.730Z,10.88
2022-11-16T04:35:00.296Z,10.82
2022-11-16T04:38:06.111Z,9.45
2022-11-16T04:41:31.334Z,10.13
2022-11-16T04:44:50.198Z,10.57
2022-11-16T04:47:54.663Z,12.63
2022-11-16T04:51:02.555Z,11.10
2022-11-16T04:54:07.180Z,12.27
2022-11-16T04:57:10.057Z,10.18
2022-11-16T05:00:15.173Z,12.15
2022-11-16T05:03:18.124Z,10.60
2022-11-16T05:06:21.195Z,10.82
2022-11-16T05:09:26.008Z,11.88
2022-11-16T05:12:29.518Z,11.23
2022-11-16T05:15:35.708Z,11.07
2022-11-16T05:18:38.578Z,11.57
2022-11-16T05:21:41.295Z,12.65
2022-11-16T05:24:47.708Z,12.25
2022-11-16T05:27:50.856Z,12.77
2022-11-16T05:30:53.784Z,12.15
2022-11-16T05:33:59.311Z,11.63
2022-11-16T05:37:02.440Z,11.93
2022-11-16T05:40:09.218Z,10.98
2022-11-16T05:43:25.217Z,11.70
2022-11-16T05:46:46.190Z,13.45
2022-11-16T05:49:49.097Z,11.35
2022-11-16T05:52:52.079Z,12.07
2022-11-16T05:55:56.382Z,12.23
2022-11-16T05:59:01.020Z,12.45
2022-11-16T06:02:04.858Z,11.93
2022-11-16T06:05:10.235Z,11.43
2022-11-16T06:08:13.102Z,12.73
2022-11-16T06:11:17.654Z,11.60
2022-11-16T06:14:21.452Z,12.82
2022-11-16T06:17:24.360Z,13.05
2022-11-16T06:20:27.347Z,12.93
2022-11-16T06:23:30.552Z,11.75
2022-11-16T06:26:34.871Z,13.70
2022-11-16T06:29:38.588Z,12.13
2022-11-16T06:32:41.838Z,14.82
2022-11-16T06:35:46.447Z,12.38
2022-11-16T06:38:54.465Z,12.30
2022-11-16T06:42:00.087Z,14.25
2022-11-16T06:45:05.899Z,12.32
2022-11-16T06:48:14.872Z,13.20
2022-11-16T06:51:17.792Z,12.50
2022-11-16T06:54:21.001Z,11.95
2022-11-16T06:57:25.391Z,13.85
2022-11-16T07:00:28.844Z,10.73
2022-11-16T07:03:33.010Z,15.93
2022-11-16T07:06:38.270Z,13.88
2022-11-16T07:09:44.356Z,22.48
2022-11-16T07:12:49.081Z,27.20
2022-11-16T07:15:54.801Z,33.50
2022-11-16T07:18:59.240Z,32.25
2022-11-16T07:22:04.987Z,30.48
2022-11-16T07:25:09.738Z,31.60
2022-11-16T07:28:14.044Z,27.50
2022-11-16T07:31:17.780Z,32.80
2022-11-16T07:34:20.931Z,24.65
2022-11-16T07:37:37.648Z,24.33
2022-11-16T07:40:41.249Z,25.58
2022-11-16T07:43:51.481Z,30.48
2022-11-16T07:47:00.586Z,22.98
2022-11-16T07:50:04.064Z,26.20
2022-11-16T07:53:08.748Z,19.42
2022-11-16T07:56:12.662Z,24.75
2022-11-16T07:59:18.462Z,24.05
2022-11-16T08:02:21.775Z,22.27
2022-11-16T08:05:26.471Z,21.02
2022-11-16T08:08:30.558Z,21.70
2022-11-16T08:11:33.578Z,23.77
2022-11-16T08:14:37.940Z,21.17
2022-11-16T08:17:40.824Z,21.13
2022-11-16T08:20:46.698Z,21.50
2022-11-16T08:23:52.676Z,22.10
2022-11-16T08:26:59.850Z,19.95
2022-11-16T08:30:09.812Z,18.08
2022-11-16T08:33:14.130Z,17.00
2022-11-16T08:36:18.149Z,17.42
2022-11-16T08:39:22.528Z,17.08
2022-11-16T08:42:26.017Z,18.73
2022-11-16T08:45:31.378Z,16.48
2022-11-16T08:48:34.545Z,17.90
2022-11-16T08:51:38.415Z,22.00
2022-11-16T08:54:42.493Z,15.20
2022-11-16T08:57:45.554Z,15.13
2022-11-16T09:00:52.086Z,15.52
2022-11-16T09:03:55.200Z,18.35
2022-11-16T09:06:58.058Z,14.18
2022-11-16T09:10:00.950Z,16.77
2022-11-16T09:13:03.911Z,15.32
2022-11-16T09:16:08.865Z,14.98
2022-11-16T09:19:11.803Z,15.05
2022-11-16T09:22:14.612Z,16.63
2022-11-16T09:25:19.062Z,18.27
2022-11-16T09:28:23.158Z,14.02
2022-11-16T09:31:28.352Z,15.52
2022-11-16T09:34:31.178Z,14.27
2022-11-16T09:37:33.994Z,16.50
2022-11-16T09:40:39.594Z,15.55
2022-11-16T09:43:53.674Z,13.77
2022-11-16T09:47:00.000Z,15.50
2022-11-16T09:50:06.537Z,15.13
2022-11-16T09:53:20.187Z,15.32
2022-11-16T09:56:25.222Z,15.18
2022-11-16T09:59:32.873Z,15.15
2022-11-16T10:02:44.283Z,18.60
2022-11-16T10:05:54.089Z,12.98
2022-11-16T10:08:57.669Z,14.35
2022-11-16T10:12:09.668Z,14.18
2022-11-16T10:15:40.625Z,16.50
2022-11-16T10:18:55.745Z,15.82
2022-11-16T10:22:04.473Z,13.55
2022-11-16T10:25:16.276Z,15.20
2022-11-16T10:28:48.399Z,14.05
2022-11-16T10:32:04.216Z,13.40
2022-11-16T10:35:18.008Z,14.40
2022-11-16T10:38:25.538Z,14.05
2022-11-16T10:41:36.406Z,13.80
2022-11-16T10:44:42.673Z,14.43
2022-11-16T10:47:53.010Z,14.20
2022-11-16T10:50:57.335Z,12.93
2022-11-16T10:54:00.220Z,12.45
2022-11-16T10:57:05.621Z,13.63
2022-11-16T11:00:12.898Z,13.90
2022-11-16T11:03:30.931Z,12.77
2022-11-16T11:06:35.631Z,15.30
2022-11-16T11:09:41.737Z,14.02
2022-11-16T11:13:03.857Z,13.35
2022-11-16T11:16:18.582Z,13.82
2022-11-16T11:19:27.462Z,11.88
2022-11-16T11:22:33.139Z,13.23
2022-11-16T11:25:38.318Z,12.60
2022-11-16T11:28:49.020Z,14.50
2022-11-16T11:31:53.936Z,13.57
2022-11-16T11:35:00.037Z,12.50
2022-11-16T11:38:08.288Z,11.65
2022-11-16T11:41:20.088Z,11.95
2022-11-16T11:44:24.369Z,10.75
2022-11-16T11:47:57.191Z,10.95
2022-11-16T11:51:10.293Z,10.48
2022-11-16T11:54:22.941Z,12.07
2022-11-16T11:57:26.621Z,11.20
2022-11-16T12:00:39.651Z,13.05
2022-11-16T12:03:58.933Z,11.68
2022-11-16T12:07:09.596Z,11.85
2022-11-16T12:10:22.494Z,10.52
2022-11-16T12:13:39.425Z,10.52
2022-11-16T12:16:49.342Z,10.90
2022-11-16T12:20:13.423Z,11.52
2022-11-16T12:23:34.825Z,11.57
2022-11-16T12:26:51.585Z,11.07
2022-11-16T12:30:02.413Z,10.63
2022-11-16T12:33:22.606Z,9.63
2022-11-16T12:36:34.602Z,10.52
2022-11-16T12:39:44.227Z,10.48
2022-11-16T12:42:59.586Z,10.60
2022-11-16T12:46:11.289Z,8.80
2022-11-16T12:49:55.855Z,11.30
2022-11-16T12:53:16.758Z,10.25
2022-11-16T12:56:30.628Z,12.88
2022-11-16T13:00:00.891Z,10.02
2022-11-16T13:03:15.889Z,9.90
2022-11-16T13:06:21.842Z,10.52
2022-11-16T13:09:28.715Z,11.32
2022-11-16T13:12:33.246Z,9.02
2022-11-16T13:15:40.973Z,8.98
2022-11-16T13:18:45.181Z,10.00
2022-11-16T13:21:54.775Z,10.65
2022-11-16T13:25:04.843Z,9.55
2022-11-16T13:28:17.212Z,12.90
2022-11-16T13:31:29.925Z,9.40
2022-11-16T13:34:34.923Z,8.65
2022-11-16T13:37:48.728Z,8.38
2022-11-16T13:40:51.561Z,9.50
2022-11-16T13:43:54.467Z,9.85
2022-11-16T13:47:04.610Z,8.85
2022-11-16T13:50:19.546Z,10.43
2022-11-16T13:57:24.551Z,8.68
2022-11-16T14:00:31.685Z,7.82
2022-11-16T14:03:39.431Z,8.10
2022-11-16T14:07:00.431Z,8.18
2022-11-16T14:10:05.998Z,9.40
2022-11-16T14:13:39.879Z,7.60
2022-11-16T14:16:48.708Z,8.75
2022-11-16T14:19:56.295Z,8.77
2022-11-16T14:23:11.312Z,9.63
2022-11-16T14:26:21.075Z,8.10
2022-11-16T14:29:43.874Z,9.38
2022-11-16T14:32:48.763Z,8.15
2022-11-16T14:35:54.168Z,7.95
2022-11-16T14:38:57.136Z,8.60
2022-11-16T14:42:03.859Z,7.35
2022-11-16T14:45:13.075Z,8.02
2022-11-16T14:48:18.047Z,8.23
2022-11-16T14:51:27.099Z,8.10
2022-11-16T14:54:36.231Z,7.97
2022-11-16T14:57:39.300Z,7.65
2022-11-16T15:00:42.179Z,8.25
2022-11-16T15:03:55.495Z,7.95
2022-11-16T15:07:03.581Z,6.45
2022-11-16T15:10:07.261Z,7.13
2022-11-16T15:13:10.132Z,8.00
2022-11-16T15:16:18.738Z,7.75
2022-11-16T15:19:22.360Z,6.38
2022-11-16T15:22:28.158Z,7.40
2022-11-16T15:25:33.249Z,7.78
2022-11-16T15:28:36.031Z,7.70
2022-11-16T15:31:43.190Z,7.53
2022-11-16T15:34:49.105Z,7.40
2022-11-16T15:38:03.423Z,8.02
2022-11-16T15:41:07.176Z,6.30
2022-11-16T15:44:16.576Z,8.32
2022-11-16T15:47:20.527Z,7.05
2022-11-16T15:50:24.688Z,8.25
2022-11-16T15:53:38.116Z,7.32
2022-11-16T15:56:42.319Z,7.55
2022-11-16T15:59:48.994Z,6.15
2022-11-16T16:02:52.798Z,6.72
2022-11-16T16:05:56.315Z,7.50
2022-11-16T16:09:08.004Z,6.07
2022-11-16T16:12:20.045Z,7.28
2022-11-16T16:15:25.298Z,6.43
2022-11-16T16:18:41.466Z,7.63
2022-11-16T16:21:46.879Z,6.53
2022-11-16T16:24:51.075Z,7.03
2022-11-16T16:27:53.917Z,6.20
2022-11-16T16:30:56.758Z,7.57
2022-11-16T16:33:59.514Z,7.82
2022-11-16T16:37:02.276Z,7.32
2022-11-16T16:40:07.993Z,6.50
2022-11-16T16:43:10.823Z,7.75
2022-11-16T16:46:14.143Z,6.57
2022-11-16T16:49:16.946Z,6.63
2022-11-16T16:52:19.752Z,7.25
2022-11-16T16:55:24.017Z,9.23
2022-11-16T16:58:26.864Z,6.20
2022-11-16T17:01:31.836Z,5.75
2022-11-16T17:04:34.667Z,7.03
2022-11-16T17:07:37.598Z,6.30
2022-11-16T17:10:41.804Z,6.65
2022-11-16T17:13:44.679Z,7.03
2022-11-16T17:16:47.509Z,6.45
2022-11-16T17:19:50.309Z,6.72
2022-11-16T17:22:53.179Z,6.45
2022-11-16T17:25:57.387Z,6.80
2022-11-16T17:29:00.256Z,6.72
2022-11-16T17:32:03.701Z,6.05
2022-11-16T17:35:06.823Z,6.55
2022-11-16T17:38:09.832Z,5.95
2022-11-16T17:41:16.403Z,5.55
2022-11-16T17:44:21.831Z,7.57
2022-11-16T17:47:25.104Z,5.15
2022-11-16T17:50:27.925Z,6.13
2022-11-16T17:53:32.822Z,6.80
2022-11-16T17:56:37.657Z,5.97
2022-11-16T17:59:40.481Z,5.78
2022-11-16T18:02:43.267Z,6.85
2022-11-16T18:05:47.313Z,6.20
2022-11-16T18:08:50.636Z,5.15
2022-11-16T18:11:54.855Z,6.88
2022-11-16T18:15:26.474Z,6.40
2022-11-16T18:18:20.398Z,6.57
2022-11-16T18:21:23.322Z,5.85
2022-11-16T18:24:26.119Z,5.10
2022-11-16T18:27:30.347Z,5.45
2022-11-16T18:30:33.113Z,5.45
2022-11-16T18:33:37.925Z,5.47
2022-11-16T18:36:41.101Z,5.85
2022-11-16T18:39:43.975Z,4.70
2022-11-16T18:42:48.151Z,5.47
2022-11-16T18:45:50.952Z,5.40
2022-11-16T18:48:54.328Z,5.60
2022-11-16T18:51:57.182Z,5.20
2022-11-16T18:55:00.046Z,5.47
2022-11-16T18:58:17.530Z,4.90
2022-11-16T19:01:28.402Z,6.43
2022-11-16T19:04:31.381Z,5.68
2022-11-16T19:07:34.611Z,5.25
2022-11-16T19:10:38.228Z,5.30
2022-11-16T19:13:43.827Z,4.43
2022-11-16T19:16:54.155Z,5.85
2022-11-16T19:19:59.632Z,4.82
2022-11-16T19:23:02.504Z,5.30
2022-11-16T19:26:07.311Z,5.93
2022-11-16T19:29:11.556Z,6.15
2022-11-16T19:32:15.222Z,5.47
2022-11-16T19:35:18.176Z,5.15
2022-11-16T19:38:20.968Z,5.53
2022-11-16T19:41:24.453Z,4.82
2022-11-16T19:44:28.698Z,5.32
2022-11-16T19:47:31.592Z,4.00
2022-11-16T19:50:36.128Z,4.50
2022-11-16T19:53:40.401Z,4.95
2022-11-16T19:56:43.671Z,5.10
2022-11-16T19:59:47.966Z,5.28
2022-11-16T20:02:50.772Z,5.53
2022-11-16T20:05:53.592Z,5.78
2022-11-16T20:08:58.988Z,5.97
2022-11-16T20:12:01.790Z,5.25
2022-11-16T20:15:06.901Z,5.85
2022-11-16T20:18:09.739Z,5.60
2022-11-16T20:21:23.024Z,4.88
2022-11-16T20:24:25.983Z,5.75
2022-11-16T20:27:28.859Z,5.50
2022-11-16T20:30:33.116Z,5.32
2022-11-16T20:33:36.514Z,6.15
2022-11-16T20:36:39.807Z,5.43
2022-11-16T20:39:42.902Z,5.75
2022-11-16T20:42:45.762Z,4.85
2022-11-16T20:45:54.452Z,4.85
2022-11-16T20:49:00.867Z,5.78
2022-11-16T20:52:03.707Z,5.90
2022-11-16T20:55:07.626Z,4.30
2022-11-16T20:58:10.506Z,4.50
2022-11-16T21:01:17.190Z,4.63
2022-11-16T21:04:20.636Z,5.18
2022-11-16T21:07:24.298Z,5.38
2022-11-16T21:10:27.243Z,4.18
2022-11-16T21:13:47.236Z,5.22
2022-11-16T21:16:51.439Z,4.25
2022-11-16T21:20:20.061Z,4.28
2022-11-16T21:23:17.288Z,5.88
2022-11-16T21:26:21.963Z,4.10
2022-11-16T21:29:26.006Z,3.78
2022-11-16T21:32:30.283Z,5.20
2022-11-16T21:35:33.168Z,7.70
2022-11-16T21:38:36.321Z,9.38
2022-11-16T21:41:39.220Z,9.75
2022-11-16T21:44:45.053Z,11.35
2022-11-16T21:47:51.401Z,11.77
2022-11-16T21:51:00.704Z,17.05
2022-11-16T21:54:03.760Z,8.43
2022-11-16T21:57:06.639Z,7.78
2022-11-16T22:00:10.793Z,5.03
2022-11-16T22:03:17.697Z,5.53
2022-11-16T22:06:38.206Z,8.30
2022-11-16T22:09:41.122Z,8.80
2022-11-16T22:12:44.145Z,10.40
2022-11-16T22:15:47.559Z,5.38
2022-11-16T22:18:51.916Z,7.40
2022-11-16T22:21:54.827Z,5.32
2022-11-16T22:24:57.667Z,8.32
2022-11-16T22:31:23.624Z,4.80
2022-11-16T22:34:27.889Z,3.95
2022-11-16T22:37:30.754Z,4.60
2022-11-16T22:40:33.680Z,3.55
2022-11-16T22:43:37.437Z,4.53
2022-11-16T22:46:40.627Z,4.80
2022-11-16T22:49:44.871Z,4.47
2022-11-16T22:52:47.792Z,5.00
2022-11-16T22:55:50.659Z,8.25
2022-11-16T22:58:54.006Z,5.60
2022-11-16T23:01:56.918Z,3.90
2022-11-16T23:05:01.215Z,4.13
2022-11-16T23:08:04.046Z,7.28
2022-11-16T23:11:26.821Z,5.40
2022-11-16T23:14:47.285Z,3.60
2022-11-16T23:17:50.205Z,6.35
2022-11-16T23:21:12.995Z,7.57
2022-11-16T23:24:33.882Z,5.80
2022-11-16T23:27:41.694Z,10.57
2022-11-16T23:30:44.600Z,7.88
2022-11-16T23:33:47.848Z,3.63
2022-11-16T23:36:52.217Z,8.55
2022-11-16T23:39:55.149Z,3.67
2022-11-16T23:43:15.929Z,4.18
2022-11-16T23:46:18.812Z,4.68
2022-11-16T23:49:21.749Z,5.72
2022-11-16T23:52:26.234Z,3.67
2022-11-16T23:55:29.790Z,5.05
2022-11-16T23:58:32.723Z,4.18
